createdAt,value
2019-04-29T00:02:06.902Z,4.67
2019-04-29T00:04:34.188Z,4.37
2019-04-29T00:07:01.792Z,6.50
2019-04-29T00:09:30.927Z,4.70
2019-04-29T00:11:58.145Z,6.20
2019-04-29T00:14:25.343Z,6.63
2019-04-29T00:16:54.202Z,5.70
2019-04-29T00:19:25.467Z,4.03
2019-04-29T00:21:52.780Z,4.40
2019-04-29T00:24:19.958Z,5.77
2019-04-29T00:26:47.153Z,4.87
2019-04-29T00:29:14.337Z,4.07
2019-04-29T00:31:41.512Z,4.00
2019-04-29T00:34:08.802Z,7.27
2019-04-29T00:36:37.675Z,6.27
2019-04-29T00:39:18.683Z,4.13
2019-04-29T00:41:56.194Z,6.67
2019-04-29T00:44:23.383Z,6.70
2019-04-29T00:46:50.546Z,5.37
2019-04-29T00:49:17.743Z,5.77
2019-04-29T00:51:44.894Z,6.53
2019-04-29T00:54:29.812Z,4.80
2019-04-29T00:56:56.978Z,7.00
2019-04-29T00:59:24.146Z,4.23
2019-04-29T01:01:51.352Z,5.53
2019-04-29T01:04:18.603Z,6.07
2019-04-29T01:06:45.778Z,4.67
2019-04-29T01:09:14.613Z,6.93
2019-04-29T01:11:42.318Z,7.10
2019-04-29T01:14:09.750Z,5.43
2019-04-29T01:16:37.016Z,5.97
2019-04-29T01:19:10.731Z,5.63
2019-04-29T01:21:45.314Z,5.60
2019-04-29T01:24:13.201Z,4.80
2019-04-29T01:26:47.981Z,7.10
2019-04-29T01:29:16.801Z,5.97
2019-04-29T01:31:43.962Z,8.37
2019-04-29T01:34:18.761Z,5.87
2019-04-29T01:36:47.253Z,5.77
2019-04-29T01:39:14.414Z,8.60
2019-04-29T01:41:48.923Z,7.80
2019-04-29T01:44:17.722Z,11.40
2019-04-29T01:46:44.909Z,7.30
2019-04-29T01:49:12.144Z,5.27
2019-04-29T01:51:39.323Z,9.83
2019-04-29T01:54:06.481Z,5.27
2019-04-29T01:56:33.651Z,7.00
2019-04-29T01:59:00.844Z,7.97
2019-04-29T02:01:28.009Z,8.10
2019-04-29T02:03:55.198Z,7.33
2019-04-29T02:06:22.360Z,7.83
2019-04-29T02:08:50.706Z,6.43
2019-04-29T02:11:17.900Z,7.77
2019-04-29T02:13:45.084Z,6.90
2019-04-29T02:16:12.268Z,7.80
2019-04-29T02:18:39.440Z,7.07
2019-04-29T02:21:06.632Z,8.23
2019-04-29T02:23:35.449Z,8.23
2019-04-29T02:26:02.657Z,8.60
2019-04-29T02:28:29.817Z,8.93
2019-04-29T02:30:57.010Z,7.60
2019-04-29T02:33:24.179Z,8.70
2019-04-29T02:35:51.357Z,10.03
2019-04-29T02:38:35.331Z,8.37
2019-04-29T02:41:20.697Z,7.27
2019-04-29T02:43:49.510Z,8.90
2019-04-29T02:46:16.675Z,9.53
2019-04-29T02:48:43.848Z,8.13
2019-04-29T02:51:12.655Z,9.73
2019-04-29T02:53:39.820Z,10.73
2019-04-29T02:56:07.000Z,10.20
2019-04-29T02:58:41.507Z,9.50
2019-04-29T03:01:15.981Z,8.53
2019-04-29T03:03:44.801Z,10.80
2019-04-29T03:06:11.960Z,8.13
2019-04-29T03:08:39.157Z,10.70
2019-04-29T03:11:06.354Z,10.67
2019-04-29T03:13:33.596Z,10.77
2019-04-29T03:16:00.783Z,11.77
2019-04-29T03:18:29.661Z,10.20
2019-04-29T03:21:01.387Z,9.57
2019-04-29T03:23:28.564Z,10.23
2019-04-29T03:25:55.750Z,9.17
2019-04-29T03:28:22.924Z,10.30
2019-04-29T03:30:50.095Z,9.50
2019-04-29T03:33:17.270Z,11.80
2019-04-29T03:35:44.526Z,11.13
2019-04-29T03:38:11.706Z,12.10
2019-04-29T03:40:39.389Z,11.30
2019-04-29T03:43:06.982Z,10.67
2019-04-29T03:45:34.173Z,14.03
2019-04-29T03:48:01.428Z,13.87
2019-04-29T03:50:28.614Z,11.50
2019-04-29T03:52:55.796Z,10.93
2019-04-29T03:55:38.332Z,13.13
2019-04-29T03:57:51.861Z,12.30
2019-04-29T04:00:19.052Z,13.90
2019-04-29T04:02:57.062Z,12.53
2019-04-29T04:05:44.024Z,11.50
2019-04-29T04:08:12.880Z,13.13
2019-04-29T04:10:40.068Z,14.50
2019-04-29T04:13:07.265Z,13.57
2019-04-29T04:15:34.499Z,16.10
2019-04-29T04:18:18.454Z,11.33
2019-04-29T04:20:45.644Z,12.13
2019-04-29T04:23:12.894Z,16.93
2019-04-29T04:25:40.083Z,13.13
2019-04-29T04:28:07.278Z,14.77
2019-04-29T04:30:34.442Z,14.23
2019-04-29T04:33:01.643Z,13.97
2019-04-29T04:35:28.894Z,15.27
2019-04-29T04:37:56.098Z,15.60
2019-04-29T04:40:27.904Z,14.73
2019-04-29T04:42:55.093Z,17.97
2019-04-29T04:45:22.351Z,15.10
2019-04-29T04:47:49.535Z,17.93
2019-04-29T04:50:17.392Z,15.97
2019-04-29T04:52:44.577Z,20.03
2019-04-29T04:55:12.698Z,16.40
2019-04-29T04:57:40.054Z,14.50
2019-04-29T05:00:08.866Z,17.03
2019-04-29T05:02:36.063Z,19.57
2019-04-29T05:05:04.107Z,15.43
2019-04-29T05:07:31.285Z,18.63
2019-04-29T05:09:58.458Z,18.90
2019-04-29T05:12:25.638Z,19.00
2019-04-29T05:14:52.822Z,15.97
2019-04-29T05:17:20.007Z,15.43
2019-04-29T05:19:47.214Z,17.50
2019-04-29T05:22:14.392Z,14.67
2019-04-29T05:24:41.567Z,15.27
2019-04-29T05:27:14.411Z,15.87
2019-04-29T05:29:41.607Z,15.80
2019-04-29T05:32:08.802Z,19.83
2019-04-29T05:34:41.917Z,15.47
2019-04-29T05:37:08.179Z,14.17
2019-04-29T05:39:42.747Z,14.10
2019-04-29T05:42:16.003Z,16.03
2019-04-29T05:44:43.410Z,20.37
2019-04-29T05:47:12.230Z,17.30
2019-04-29T05:49:57.561Z,12.87
2019-04-29T05:52:26.400Z,14.07
2019-04-29T05:54:53.582Z,15.07
2019-04-29T05:57:25.281Z,12.60
2019-04-29T05:59:49.668Z,14.87
2019-04-29T06:02:16.842Z,14.80
2019-04-29T06:04:44.042Z,14.80
2019-04-29T06:07:11.211Z,14.20
2019-04-29T06:09:38.398Z,15.07
2019-04-29T06:12:05.572Z,15.37
2019-04-29T06:14:32.755Z,14.43
2019-04-29T06:17:02.922Z,17.20
2019-04-29T06:19:28.918Z,16.17
2019-04-29T06:21:56.096Z,16.47
2019-04-29T06:24:23.289Z,16.03
2019-04-29T06:26:50.469Z,12.97
2019-04-29T06:29:17.650Z,17.57
2019-04-29T06:31:44.842Z,16.43
2019-04-29T06:34:12.080Z,14.63
2019-04-29T06:36:39.327Z,13.20
2019-04-29T06:39:07.169Z,12.33
2019-04-29T06:41:34.333Z,13.77
2019-04-29T06:44:06.677Z,14.43
2019-04-29T06:46:30.463Z,16.47
2019-04-29T06:49:09.539Z,12.63
2019-04-29T06:51:26.534Z,13.30
2019-04-29T06:53:53.734Z,12.77
2019-04-29T06:56:20.914Z,12.23
2019-04-29T06:58:52.674Z,12.67
2019-04-29T07:01:19.858Z,13.13
2019-04-29T07:03:47.037Z,10.60
2019-04-29T07:06:19.822Z,9.67
2019-04-29T07:08:48.706Z,10.40
2019-04-29T07:11:19.214Z,13.37
2019-04-29T07:13:46.786Z,10.80
2019-04-29T07:16:16.980Z,10.37
2019-04-29T07:18:51.255Z,10.87
2019-04-29T07:21:18.278Z,10.70
2019-04-29T07:23:45.945Z,13.83
2019-04-29T07:26:13.121Z,10.97
2019-04-29T07:28:40.298Z,9.20
2019-04-29T07:31:10.013Z,7.73
2019-04-29T07:33:36.392Z,7.00
2019-04-29T07:36:10.789Z,14.23
2019-04-29T07:38:41.239Z,7.47
2019-04-29T07:41:01.403Z,8.43
2019-04-29T07:43:28.576Z,7.73
2019-04-29T07:46:03.742Z,9.03
2019-04-29T07:48:29.046Z,10.13
2019-04-29T07:50:59.543Z,8.53
2019-04-29T07:53:34.355Z,12.53
2019-04-29T07:55:54.027Z,10.87
2019-04-29T07:58:23.041Z,12.83
2019-04-29T08:00:50.709Z,13.10
2019-04-29T08:03:17.997Z,10.67
2019-04-29T08:05:45.750Z,10.60
2019-04-29T08:08:16.630Z,11.33
2019-04-29T08:10:55.732Z,11.90
2019-04-29T08:13:11.441Z,12.00
2019-04-29T08:15:41.563Z,11.77
2019-04-29T08:18:11.354Z,14.23
2019-04-29T08:20:39.759Z,13.73
2019-04-29T08:23:05.403Z,16.77
2019-04-29T08:25:32.813Z,14.97
2019-04-29T08:28:00.875Z,15.73
2019-04-29T08:30:28.059Z,15.07
2019-04-29T08:32:55.251Z,15.57
2019-04-29T08:35:22.454Z,19.80
2019-04-29T08:37:49.626Z,11.63
2019-04-29T08:40:17.021Z,17.70
2019-04-29T08:42:46.885Z,18.53
2019-04-29T08:45:22.290Z,13.97
2019-04-29T08:47:50.660Z,14.13
2019-04-29T08:50:17.879Z,17.63
2019-04-29T08:52:45.085Z,18.47
2019-04-29T08:55:12.281Z,16.60
2019-04-29T08:57:39.522Z,18.43
2019-04-29T09:00:07.071Z,19.30
2019-04-29T09:02:35.727Z,20.03
2019-04-29T09:05:06.700Z,20.20
2019-04-29T09:07:34.683Z,15.80
2019-04-29T09:10:03.713Z,21.60
2019-04-29T09:12:34.194Z,19.03
2019-04-29T09:15:01.526Z,19.40
2019-04-29T09:17:28.837Z,16.13
2019-04-29T09:19:56.077Z,16.37
2019-04-29T09:22:24.894Z,17.87
2019-04-29T09:25:10.202Z,19.03
2019-04-29T09:27:40.758Z,20.53
2019-04-29T09:30:08.497Z,18.57
2019-04-29T09:32:38.201Z,20.67
2019-04-29T09:35:05.923Z,16.97
2019-04-29T09:37:33.299Z,18.13
2019-04-29T09:40:00.481Z,22.93
2019-04-29T09:42:32.255Z,19.43
2019-04-29T09:45:04.026Z,20.57
2019-04-29T09:47:32.167Z,19.23
2019-04-29T09:49:59.358Z,21.10
2019-04-29T09:52:26.538Z,15.20
2019-04-29T09:54:53.718Z,19.93
2019-04-29T09:57:20.929Z,18.27
2019-04-29T09:59:52.775Z,16.03
2019-04-29T10:02:36.638Z,18.27
2019-04-29T10:05:12.334Z,17.60
2019-04-29T10:07:39.523Z,27.33
2019-04-29T10:10:07.861Z,15.47
2019-04-29T10:12:35.150Z,22.20
2019-04-29T10:15:04.060Z,22.00
2019-04-29T10:20:27.919Z,14.73
2019-04-29T10:22:55.167Z,16.83
2019-04-29T10:25:22.330Z,21.30
2019-04-29T10:27:49.523Z,19.80
2019-04-29T10:30:18.329Z,14.37
2019-04-29T10:32:45.518Z,17.23
2019-04-29T10:35:13.676Z,13.53
2019-04-29T10:37:40.844Z,15.80
2019-04-29T10:40:15.742Z,15.50
2019-04-29T10:42:44.554Z,16.17
2019-04-29T10:45:16.061Z,13.63
2019-04-29T10:47:47.630Z,18.67
2019-04-29T10:50:28.598Z,16.13
2019-04-29T10:52:55.774Z,14.73
2019-04-29T10:55:25.598Z,14.43
2019-04-29T10:57:52.527Z,15.57
2019-04-29T11:00:38.990Z,13.23
2019-04-29T11:03:07.337Z,21.40
2019-04-29T11:05:36.390Z,13.57
2019-04-29T11:08:05.215Z,16.53
2019-04-29T11:10:32.961Z,18.37
2019-04-29T11:13:00.158Z,16.20
2019-04-29T11:15:32.401Z,17.37
2019-04-29T11:17:59.815Z,13.50
2019-04-29T11:20:27.241Z,14.77
2019-04-29T11:22:59.048Z,17.17
2019-04-29T11:25:50.808Z,12.87
2019-04-29T11:28:16.085Z,21.97
2019-04-29T11:30:42.765Z,17.03
2019-04-29T11:33:14.540Z,18.30
2019-04-29T11:35:55.126Z,18.33
2019-04-29T11:38:22.304Z,18.37
2019-04-29T11:40:49.505Z,17.50
2019-04-29T11:43:18.165Z,21.90
2019-04-29T11:45:46.534Z,17.97
2019-04-29T11:48:14.222Z,18.57
2019-04-29T11:50:45.242Z,19.90
2019-04-29T11:53:13.583Z,16.77
2019-04-29T11:55:42.781Z,13.87
2019-04-29T11:58:27.220Z,15.67
2019-04-29T12:01:12.362Z,16.53
2019-04-29T12:03:51.214Z,17.57
2019-04-29T12:06:20.254Z,18.97
2019-04-29T12:08:48.340Z,21.20
2019-04-29T12:11:14.242Z,16.57
2019-04-29T12:13:49.036Z,20.93
2019-04-29T12:16:24.506Z,16.03
2019-04-29T12:18:51.335Z,20.10
2019-04-29T12:21:35.327Z,17.63
2019-04-29T12:24:03.492Z,18.13
2019-04-29T12:26:35.660Z,14.90
2019-04-29T12:28:59.834Z,18.30
2019-04-29T12:31:28.685Z,16.17
2019-04-29T12:34:00.291Z,19.33
2019-04-29T12:36:27.474Z,14.50
2019-04-29T12:39:12.844Z,17.60
2019-04-29T12:41:48.477Z,16.27
2019-04-29T12:44:12.198Z,15.23
2019-04-29T12:46:43.954Z,14.90
2019-04-29T12:49:13.573Z,17.50
2019-04-29T12:51:40.047Z,15.90
2019-04-29T12:54:07.213Z,14.90
2019-04-29T12:56:36.018Z,19.63
2019-04-29T12:59:04.064Z,14.47
2019-04-29T13:01:50.229Z,11.97
2019-04-29T13:04:03.991Z,15.20
2019-04-29T13:06:47.680Z,18.40
2019-04-29T13:09:34.886Z,18.20
2019-04-29T13:12:17.722Z,14.37
2019-04-29T13:14:33.193Z,13.17
2019-04-29T13:17:14.253Z,14.33
2019-04-29T13:19:35.906Z,18.23
2019-04-29T13:22:03.090Z,15.23
2019-04-29T13:24:30.264Z,18.83
2019-04-29T13:26:57.446Z,15.17
2019-04-29T13:29:27.190Z,16.00
2019-04-29T13:31:53.526Z,15.10
2019-04-29T13:34:24.576Z,12.13
2019-04-29T13:37:06.034Z,17.53
2019-04-29T13:39:37.913Z,13.60
2019-04-29T13:41:57.528Z,16.60
2019-04-29T13:44:19.734Z,20.87
2019-04-29T13:46:53.567Z,16.90
2019-04-29T13:49:21.436Z,17.63
2019-04-29T13:51:50.396Z,14.37
2019-04-29T13:54:17.641Z,13.03
2019-04-29T13:56:55.697Z,12.30
2019-04-29T13:59:15.441Z,14.30
2019-04-29T14:01:58.218Z,15.83
2019-04-29T14:04:14.874Z,14.33
2019-04-29T14:06:56.192Z,17.37
2019-04-29T14:09:12.611Z,15.67
2019-04-29T14:11:39.838Z,19.13
2019-04-29T14:14:07.098Z,14.80
2019-04-29T14:16:34.292Z,22.63
2019-04-29T14:19:01.459Z,13.93
2019-04-29T14:21:30.098Z,13.87
2019-04-29T14:23:57.545Z,16.23
2019-04-29T14:26:24.722Z,15.27
2019-04-29T14:28:51.906Z,16.90
2019-04-29T14:31:22.681Z,12.30
2019-04-29T14:33:59.757Z,16.73
2019-04-29T14:36:26.226Z,15.77
2019-04-29T14:38:53.371Z,14.90
2019-04-29T14:41:20.975Z,12.63
2019-04-29T14:43:50.543Z,9.73
2019-04-29T14:46:26.751Z,14.00
2019-04-29T14:49:07.406Z,10.63
2019-04-29T14:51:36.864Z,8.50
2019-04-29T14:54:05.659Z,11.50
2019-04-29T14:56:32.743Z,13.20
2019-04-29T14:59:07.067Z,10.77
2019-04-29T15:01:45.609Z,18.30
2019-04-29T15:04:18.495Z,14.13
2019-04-29T15:06:43.429Z,9.17
2019-04-29T15:09:16.836Z,24.70
2019-04-29T15:11:54.458Z,8.30
2019-04-29T15:14:24.030Z,8.43
2019-04-29T15:17:09.015Z,13.03
2019-04-29T15:19:54.786Z,9.30
2019-04-29T15:22:24.569Z,12.70
2019-04-29T15:24:51.391Z,10.90
2019-04-29T15:27:18.564Z,13.77
2019-04-29T15:29:45.749Z,12.67
2019-04-29T15:32:12.917Z,9.27
2019-04-29T15:34:44.015Z,10.07
2019-04-29T15:37:08.994Z,11.53
2019-04-29T15:39:36.193Z,9.30
2019-04-29T15:42:06.997Z,7.17
2019-04-29T15:44:32.401Z,13.77
2019-04-29T15:46:59.784Z,9.63
2019-04-29T15:49:26.964Z,10.57
2019-04-29T15:51:54.144Z,8.97
2019-04-29T15:54:21.326Z,14.10
2019-04-29T15:56:48.612Z,10.60
2019-04-29T15:59:16.340Z,8.90
2019-04-29T16:01:44.498Z,8.47
2019-04-29T16:04:22.978Z,8.17
2019-04-29T16:07:08.470Z,7.40
2019-04-29T16:09:51.856Z,8.13
2019-04-29T16:12:15.422Z,8.97
2019-04-29T16:14:42.541Z,12.60
2019-04-29T16:17:09.734Z,8.40
2019-04-29T16:19:36.909Z,8.43
2019-04-29T16:22:04.551Z,6.33
2019-04-29T16:24:37.406Z,9.33
2019-04-29T16:27:01.275Z,9.10
2019-04-29T16:29:29.564Z,8.40
2019-04-29T16:32:02.314Z,8.67
2019-04-29T16:34:25.643Z,8.57
2019-04-29T16:36:52.910Z,10.33
2019-04-29T16:39:20.264Z,7.80
2019-04-29T16:41:58.046Z,8.10
2019-04-29T16:44:35.449Z,9.40
2019-04-29T16:46:52.654Z,9.57
2019-04-29T16:49:20.633Z,5.93
2019-04-29T16:51:53.510Z,6.40
2019-04-29T16:54:20.526Z,8.77
2019-04-29T16:56:45.663Z,8.37
2019-04-29T16:59:12.892Z,6.10
2019-04-29T17:01:40.068Z,8.63
2019-04-29T17:04:07.234Z,6.67
2019-04-29T17:06:36.016Z,9.83
2019-04-29T17:09:22.649Z,8.77
2019-04-29T17:11:50.429Z,4.87
2019-04-29T17:14:15.110Z,7.57
2019-04-29T17:16:42.297Z,7.00
2019-04-29T17:19:09.522Z,6.43
2019-04-29T17:21:36.710Z,6.20
2019-04-29T17:24:03.890Z,8.57
2019-04-29T17:26:38.238Z,16.40
2019-04-29T17:31:38.522Z,26.43
2019-04-29T17:34:08.257Z,9.33
2019-04-29T17:35:17.074Z,12.73
2019-04-29T17:36:36.034Z,9.47
2019-04-29T17:39:05.540Z,6.40
2019-04-29T17:41:32.705Z,8.10
2019-04-29T17:44:18.773Z,8.67
2019-04-29T17:47:00.311Z,10.87
2019-04-29T17:49:34.796Z,7.83
2019-04-29T17:52:04.280Z,6.93
2019-04-29T17:54:32.548Z,5.13
2019-04-29T17:57:22.869Z,5.90
2019-04-29T17:59:31.886Z,9.17
2019-04-29T18:02:05.261Z,4.60
2019-04-29T18:04:36.526Z,7.57
2019-04-29T18:07:12.023Z,9.03
2019-04-29T18:09:38.816Z,5.43
2019-04-29T18:12:07.688Z,9.73
2019-04-29T18:14:39.119Z,8.87
2019-04-29T18:17:04.987Z,6.00
2019-04-29T18:19:36.537Z,6.30
2019-04-29T18:22:07.270Z,10.00
2019-04-29T18:24:41.835Z,6.03
2019-04-29T18:27:13.050Z,7.93
2019-04-29T18:29:41.728Z,8.63
2019-04-29T18:32:09.122Z,5.57
2019-04-29T18:34:37.372Z,5.63
2019-04-29T18:37:06.451Z,4.73
2019-04-29T18:39:34.034Z,6.90
2019-04-29T18:42:03.262Z,5.20
2019-04-29T18:44:30.658Z,3.93
2019-04-29T18:46:57.834Z,6.60
2019-04-29T18:49:25.802Z,7.53
2019-04-29T18:51:53.171Z,4.43
2019-04-29T18:54:20.355Z,9.00
2019-04-29T18:56:47.519Z,8.00
2019-04-29T18:59:18.252Z,4.13
2019-04-29T19:01:44.997Z,5.90
2019-04-29T19:04:19.235Z,8.67
2019-04-29T19:06:46.046Z,5.50
2019-04-29T19:09:20.124Z,3.67
2019-04-29T19:11:43.757Z,4.57
2019-04-29T19:14:10.976Z,4.07
2019-04-29T19:16:39.569Z,6.30
2019-04-29T19:19:07.066Z,6.83
2019-04-29T19:21:34.230Z,5.80
2019-04-29T19:24:01.498Z,3.90
2019-04-29T19:26:29.930Z,5.80
2019-04-29T19:29:01.231Z,7.53
2019-04-29T19:31:27.049Z,7.40
2019-04-29T19:33:55.103Z,6.47
2019-04-29T19:36:23.116Z,4.50
2019-04-29T19:38:50.321Z,7.03
2019-04-29T19:41:18.136Z,11.97
2019-04-29T19:43:48.411Z,6.23
2019-04-29T19:46:22.527Z,5.60
2019-04-29T19:48:45.115Z,5.43
2019-04-29T19:51:17.407Z,7.43
2019-04-29T19:53:43.436Z,4.97
2019-04-29T19:56:12.634Z,6.30
2019-04-29T19:58:40.184Z,6.53
2019-04-29T20:01:13.810Z,6.53
2019-04-29T20:03:41.494Z,5.70
2019-04-29T20:06:21.334Z,6.97
2019-04-29T20:08:53.594Z,7.23
2019-04-29T20:11:14.613Z,4.47
2019-04-29T20:13:41.227Z,8.27
2019-04-29T20:16:40.527Z,4.87
2019-04-29T20:19:02.477Z,8.80
2019-04-29T20:21:39.868Z,14.70
2019-04-29T20:24:09.500Z,8.83
2019-04-29T20:26:36.645Z,7.00
2019-04-29T20:29:07.109Z,5.87
2019-04-29T20:31:35.617Z,4.83
2019-04-29T20:34:06.495Z,5.07
2019-04-29T20:36:41.633Z,10.20
2019-04-29T20:39:02.825Z,4.83
2019-04-29T20:41:40.647Z,5.50
2019-04-29T20:44:00.837Z,4.37
2019-04-29T20:46:41.016Z,8.33
2019-04-29T20:48:59.673Z,9.80
2019-04-29T20:51:32.155Z,6.97
2019-04-29T20:53:56.791Z,7.83
2019-04-29T20:57:01.332Z,4.57
2019-04-29T20:59:12.466Z,5.53
2019-04-29T21:01:43.168Z,7.27
2019-04-29T21:04:07.455Z,4.43
2019-04-29T21:06:39.155Z,4.90
2019-04-29T21:09:07.266Z,7.60
2019-04-29T21:12:01.545Z,3.97
2019-04-29T21:14:34.005Z,6.07
2019-04-29T21:17:02.161Z,5.73
2019-04-29T21:19:41.432Z,5.23
2019-04-29T21:22:20.402Z,4.33
2019-04-29T21:24:49.340Z,5.27
2019-04-29T21:27:15.970Z,4.93
2019-04-29T21:29:43.214Z,5.03
2019-04-29T21:32:10.398Z,4.87
2019-04-29T21:34:39.210Z,6.97
2019-04-29T21:37:10.938Z,6.37
2019-04-29T21:39:40.899Z,3.57
2019-04-29T21:42:21.461Z,7.57
2019-04-29T21:44:48.671Z,5.57
2019-04-29T21:47:16.312Z,7.73
2019-04-29T21:49:45.674Z,7.63
2019-04-29T21:52:12.402Z,5.73
2019-04-29T21:54:39.573Z,6.77
2019-04-29T21:57:06.742Z,4.73
2019-04-29T21:59:35.653Z,4.27
2019-04-29T22:02:06.794Z,5.50
2019-04-29T22:04:32.725Z,8.77
2019-04-29T22:07:04.792Z,8.30
2019-04-29T22:09:36.167Z,5.63
2019-04-29T22:11:58.926Z,5.47
2019-04-29T22:14:26.636Z,4.03
2019-04-29T22:16:57.023Z,13.27
2019-04-29T22:19:26.752Z,3.70
2019-04-29T22:21:52.741Z,7.60
2019-04-29T22:24:21.809Z,5.83
2019-04-29T22:26:49.630Z,6.37
2019-04-29T22:29:16.799Z,4.40
2019-04-29T22:31:45.805Z,4.60
2019-04-29T22:34:15.104Z,5.83
2019-04-29T22:36:41.739Z,7.97
2019-04-29T22:39:08.941Z,9.00
2019-04-29T22:41:56.127Z,4.07
2019-04-29T22:44:25.881Z,13.37
2019-04-29T22:46:53.264Z,5.10
2019-04-29T22:49:27.298Z,9.00
2019-04-29T22:51:49.698Z,6.00
2019-04-29T22:54:22.203Z,7.10
2019-04-29T22:56:52.164Z,5.73
2019-04-29T22:59:19.160Z,5.20
2019-04-29T23:01:49.305Z,7.80
2019-04-29T23:04:17.690Z,9.13
2019-04-29T23:06:46.618Z,4.70
2019-04-29T23:09:12.054Z,6.33
2019-04-29T23:11:40.826Z,10.50
2019-04-29T23:14:10.088Z,5.47
2019-04-29T23:16:37.270Z,5.60
2019-04-29T23:19:05.143Z,4.80
2019-04-29T23:21:51.495Z,6.57
2019-04-29T23:24:23.077Z,4.77
2019-04-29T23:26:50.251Z,6.73
2019-04-29T23:29:17.435Z,5.47
2019-04-29T23:31:45.387Z,5.33
2019-04-29T23:34:12.752Z,6.83
2019-04-29T23:36:39.935Z,9.90
2019-04-29T23:39:07.108Z,9.70
2019-04-29T23:41:36.566Z,7.53
2019-04-29T23:44:05.221Z,8.13
2019-04-29T23:46:34.320Z,7.87
2019-04-29T23:49:03.336Z,6.33
2019-04-29T23:51:34.512Z,8.63
2019-04-29T23:54:03.329Z,4.83
2019-04-29T23:56:29.347Z,6.13
2019-04-29T23:58:58.161Z,7.03
